Time;durP1;ratioP1;P1;durP2;ratioP2;P2;SDS_P1;SDS_P2;PMS_P1;PMS_P2;Temp;Humidity;BMP_temperature;BMP_pressure;BME280_temperature;BME280_humidity;BME280_pressure;Samples;Min_cycle;Max_cycle;Signal;HPM_P1;HPM_P2
2022/09/13 00:01:07;;;;;;;4.72;3.25;;;;;;;13.97;67.70;93779.78;5146112;27;20027;-76
2022/09/13 00:03:32;;;;;;;5.78;3.85;;;;;;;13.97;67.60;93782.47;5145832;27;20019;-75
2022/09/13 00:06:17;;;;;;;6.70;3.72;;;;;;;14.03;67.62;93783.03;5145906;27;20042;-75
2022/09/13 00:08:43;;;;;;;6.55;4.20;;;;;;;14.05;67.82;93783.47;5145530;27;20059;-75
2022/09/13 00:11:16;;;;;;;9.35;3.92;;;;;;;14.09;67.63;93779.00;5146030;27;20031;-75
2022/09/13 00:13:41;;;;;;;9.35;3.80;;;;;;;14.11;67.58;93774.09;5145789;27;20031;-75
2022/09/13 00:16:11;;;;;;;6.72;3.50;;;;;;;14.15;67.49;93768.84;5145647;27;20386;-75
2022/09/13 00:18:37;;;;;;;6.78;3.70;;;;;;;14.12;67.63;93774.84;5145912;27;20023;-75
2022/09/13 00:21:05;;;;;;;8.05;3.90;;;;;;;14.17;67.50;93772.75;5145568;27;20027;-75
2022/09/13 00:23:31;;;;;;;7.22;3.95;;;;;;;14.19;67.33;93769.72;5145450;27;20023;-76
2022/09/13 00:26:08;;;;;;;8.20;3.65;;;;;;;14.25;66.90;93758.44;5145506;27;20274;-75
2022/09/13 00:28:34;;;;;;;7.50;4.13;;;;;;;14.28;66.92;93766.91;5145326;27;20245;-76
2022/09/13 00:31:01;;;;;;;6.97;3.90;;;;;;;14.28;67.25;93756.97;5145386;27;20019;-75
2022/09/13 00:33:26;;;;;;;6.47;3.90;;;;;;;14.32;66.81;93765.13;5145421;27;20242;-75
2022/09/13 00:35:52;;;;;;;7.25;3.47;;;;;;;14.34;66.93;93760.19;5145434;27;20044;-76
2022/09/13 00:38:17;;;;;;;7.57;4.20;;;;;;;14.35;66.99;93759.06;5144263;27;20015;-76
2022/09/13 00:40:43;;;;;;;5.57;3.60;;;;;;;14.32;66.80;93749.81;5145177;27;20147;-75
2022/09/13 00:43:17;;;;;;;7.07;3.35;;;;;;;14.39;66.82;93760.75;5145184;27;20064;-76
2022/09/13 00:45:44;;;;;;;6.38;4.03;;;;;;;14.45;66.37;93758.63;5145039;27;20026;-76
2022/09/13 00:48:19;;;;;;;9.05;3.30;;;;;;;14.46;66.57;93754.81;5145204;27;20086;-76
2022/09/13 00:50:49;;;;;;;9.10;3.53;;;;;;;14.40;66.26;93748.88;5145224;27;20212;-76
2022/09/13 00:53:31;;;;;;;6.50;3.83;;;;;;;14.49;66.45;93753.34;5145108;27;20046;-75
2022/09/13 00:56:01;;;;;;;8.02;3.45;;;;;;;14.52;66.21;93748.06;5144785;27;20086;-75
2022/09/13 00:58:32;;;;;;;6.57;3.92;;;;;;;14.50;65.79;93752.22;5145002;27;20031;-75
2022/09/13 01:00:58;;;;;;;13.73;4.00;;;;;;;14.52;65.75;93749.97;5144931;27;20122;-76
2022/09/13 01:03:27;;;;;;;5.75;3.97;;;;;;;14.54;65.69;93745.06;5144920;27;20247;-76
2022/09/13 01:06:01;;;;;;;6.13;3.60;;;;;;;14.57;65.73;93755.94;5144850;27;20213;-76
2022/09/13 01:08:30;;;;;;;9.40;4.07;;;;;;;14.57;65.74;93763.16;5144461;27;20035;-76
2022/09/13 01:10:59;;;;;;;4.97;3.28;;;;;;;14.50;66.09;93754.91;5144868;27;20035;-75
2022/09/13 01:13:30;;;;;;;7.68;3.97;;;;;;;14.45;66.01;93750.56;5144668;27;20022;-75
2022/09/13 01:15:56;;;;;;;4.97;3.50;;;;;;;14.42;66.40;93748.56;5144571;27;20018;-75
2022/09/13 01:18:22;;;;;;;5.95;3.25;;;;;;;14.47;66.23;93739.47;5144593;27;20056;-76
2022/09/13 01:21:33;;;;;;;6.70;3.10;;;;;;;14.44;66.37;93751.69;5144514;27;20023;-76
2022/09/13 01:24:33;;;;;;;5.72;3.67;;;;;;;14.46;66.18;93746.75;5144501;27;20019;-75
2022/09/13 01:27:23;;;;;;;7.07;3.22;;;;;;;14.41;66.55;93741.63;5144344;27;20072;-75
2022/09/13 01:30:03;;;;;;;6.75;3.55;;;;;;;14.43;66.23;93742.06;5144480;27;20059;-75
2022/09/13 01:32:55;;;;;;;5.97;3.75;;;;;;;14.45;66.42;93745.22;5144178;27;20027;-75
2022/09/13 01:35:51;;;;;;;10.90;3.80;;;;;;;14.38;66.24;93736.94;5144151;27;20098;-75
2022/09/13 01:38:29;;;;;;;6.68;3.55;;;;;;;14.30;66.58;93737.88;5144275;27;20246;-75
2022/09/13 01:40:56;;;;;;;5.28;3.10;;;;;;;14.38;66.71;93731.59;5144111;27;20031;-75
2022/09/13 01:43:40;;;;;;;5.10;3.00;;;;;;;14.35;66.71;93734.94;5144220;27;20026;-75
2022/09/13 01:46:12;;;;;;;5.20;3.28;;;;;;;14.37;66.73;93735.38;5143830;27;20321;-75
2022/09/13 01:48:56;;;;;;;5.57;3.33;;;;;;;14.35;66.36;93738.41;5144128;27;20041;-75
2022/09/13 01:51:35;;;;;;;6.32;3.08;;;;;;;14.24;66.97;93730.03;5143937;27;20090;-75
2022/09/13 01:54:23;;;;;;;7.05;3.20;;;;;;;14.23;66.68;93739.22;5143794;27;20054;-75
2022/09/13 01:56:58;;;;;;;10.10;3.30;;;;;;;14.18;67.22;93733.31;5143927;27;20043;-76
2022/09/13 01:59:46;;;;;;;7.15;3.55;;;;;;;14.22;67.27;93728.81;5143711;27;20030;-76
2022/09/13 02:02:34;;;;;;;5.80;2.95;;;;;;;14.20;67.12;93734.53;5144039;27;20036;-76
2022/09/13 02:05:06;;;;;;;6.53;3.25;;;;;;;14.22;67.09;93732.28;5143606;27;20019;-75
2022/09/13 02:07:39;;;;;;;6.03;3.75;;;;;;;14.21;67.20;93724.59;5143508;27;20035;-75
2022/09/13 02:10:13;;;;;;;12.70;4.57;;;;;;;14.14;67.06;93729.75;5125511;28;20058;-75
2022/09/13 02:12:42;;;;;;;10.00;3.75;;;;;;;14.18;67.21;93728.72;5144059;28;20051;-75
2022/09/13 02:15:14;;;;;;;6.80;3.22;;;;;;;14.20;67.11;93726.47;5144011;28;20274;-76
2022/09/13 02:17:42;;;;;;;;;;;;;;;14.15;66.79;93737.44;5144027;27;20060;-75
2022/09/13 02:20:15;;;;;;;3.97;2.60;;;;;;;14.15;67.05;93725.97;5143938;28;19945;-76
2022/09/13 02:22:45;;;;;;;7.50;3.05;;;;;;;14.12;67.30;93730.06;5143723;28;20019;-76
2022/09/13 02:25:14;;;;;;;5.07;3.20;;;;;;;14.14;67.40;93719.03;5143575;27;20305;-75
2022/09/13 02:27:46;;;;;;;7.13;3.08;;;;;;;14.09;67.21;93733.44;5143509;27;20023;-75
2022/09/13 02:30:13;;;;;;;5.53;2.70;;;;;;;14.00;67.31;93728.22;5143415;28;20043;-75
2022/09/13 02:32:55;;;;;;;5.35;3.17;;;;;;;14.04;67.51;93726.41;5143671;27;20023;-76
2022/09/13 02:35:39;;;;;;;6.05;2.90;;;;;;;13.99;67.45;93723.97;5143295;28;20218;-75
2022/09/13 02:38:09;;;;;;;7.85;2.95;;;;;;;13.92;67.57;93725.63;5143336;27;20042;-75
2022/09/13 02:40:45;;;;;;;9.20;2.70;;;;;;;13.89;67.81;93729.00;5143238;27;20020;-75
2022/09/13 02:43:19;;;;;;;8.20;2.78;;;;;;;13.80;68.02;93721.88;5143445;27;20059;-75
2022/09/13 02:45:51;;;;;;;4.18;2.80;;;;;;;13.82;68.05;93729.56;5143320;28;20019;-75
2022/09/13 02:48:27;;;;;;;6.20;3.15;;;;;;;13.77;68.28;93721.75;5143375;28;20215;-75
2022/09/13 02:50:53;;;;;;;6.05;3.03;;;;;;;13.84;68.03;93724.66;5143155;28;20023;-75
2022/09/13 02:53:49;;;;;;;7.97;3.25;;;;;;;13.77;67.94;93727.88;5143257;28;20030;-75
2022/09/13 02:56:30;;;;;;;5.40;3.13;;;;;;;13.78;68.04;93734.81;5143163;28;20015;-75
2022/09/13 02:59:04;;;;;;;3.83;2.60;;;;;;;13.74;68.25;93733.94;5143064;28;20030;-75
2022/09/13 03:01:30;;;;;;;6.65;2.70;;;;;;;13.73;68.16;93732.34;5144209;27;20026;-75
2022/09/13 03:03:56;;;;;;;7.40;3.08;;;;;;;13.73;68.14;93729.66;5147072;27;20054;-75
2022/09/13 03:06:26;;;;;;;5.97;2.97;;;;;;;13.69;68.00;93722.66;5147140;27;20065;-75
2022/09/13 03:08:53;;;;;;;5.25;3.00;;;;;;;13.68;68.32;93723.75;5146757;27;20087;-75
2022/09/13 03:11:45;;;;;;;4.30;2.70;;;;;;;13.69;68.04;93726.09;5146774;27;20194;-75
2022/09/13 03:14:53;;;;;;;5.00;3.20;;;;;;;13.73;67.85;93724.31;5146842;27;20022;-75
2022/09/13 03:17:43;;;;;;;5.47;2.75;;;;;;;13.70;67.80;93735.72;5146557;27;20023;-75
2022/09/13 03:20:11;;;;;;;5.63;3.22;;;;;;;13.74;67.37;93731.25;5146847;27;20434;-75
2022/09/13 03:23:06;;;;;;;3.88;2.80;;;;;;;13.76;67.10;93725.53;5146700;27;20049;-75
2022/09/13 03:25:47;;;;;;;8.68;3.30;;;;;;;13.76;67.29;93725.53;5146236;27;20039;-75
2022/09/13 03:28:46;;;;;;;5.18;3.13;;;;;;;13.76;66.65;93720.97;5146525;27;20336;-75
2022/09/13 03:31:36;;;;;;;5.82;2.78;;;;;;;13.77;66.82;93727.88;5146495;27;20069;-75
2022/09/13 03:34:13;;;;;;;7.47;2.80;;;;;;;13.78;66.71;93724.09;5146340;27;20126;-75
2022/09/13 03:36:54;;;;;;;5.22;3.10;;;;;;;13.71;66.11;93733.81;5146804;27;20094;-75
2022/09/13 03:39:40;;;;;;;3.55;2.40;;;;;;;13.69;66.21;93725.31;5146533;27;20027;-76
2022/09/13 03:42:18;;;;;;;4.45;2.50;;;;;;;13.65;65.81;93727.88;5146547;27;20026;-75
2022/09/13 03:44:48;;;;;;;6.13;2.67;;;;;;;13.69;65.75;93736.03;5146007;27;20023;-75
2022/09/13 03:47:15;;;;;;;6.88;2.83;;;;;;;13.59;65.67;93729.22;5146164;27;20031;-75
2022/09/13 03:49:40;;;;;;;5.85;3.20;;;;;;;13.60;65.51;93734.25;5146077;27;20019;-75
2022/09/13 03:52:06;;;;;;;6.53;2.72;;;;;;;13.63;65.28;93738.16;5146337;27;20027;-75
2022/09/13 03:54:37;;;;;;;4.60;2.90;;;;;;;13.57;65.53;93737.59;5146140;27;20332;-75
2022/09/13 03:57:14;;;;;;;4.57;2.70;;;;;;;13.60;65.15;93728.91;5145811;27;20255;-75
2022/09/13 03:59:49;;;;;;;6.32;2.65;;;;;;;13.59;65.33;93739.94;5145930;27;20065;-75
2022/09/13 04:02:15;;;;;;;3.90;2.50;;;;;;;13.58;65.23;93735.72;5145604;27;20076;-75
2022/09/13 04:04:42;;;;;;;4.72;2.45;;;;;;;13.60;65.62;93736.16;5146114;27;20220;-75
2022/09/13 04:07:10;;;;;;;5.13;2.30;;;;;;;13.49;65.49;93727.75;5145978;27;20254;-75
2022/09/13 04:09:36;;;;;;;4.82;2.30;;;;;;;13.50;65.85;93733.94;5145484;27;20346;-75
2022/09/13 04:12:01;;;;;;;4.43;2.30;;;;;;;13.48;65.23;93728.91;5145284;27;20034;-75
2022/09/13 04:14:27;;;;;;;4.55;2.53;;;;;;;13.47;65.46;93730.00;5145602;27;20025;-75
2022/09/13 04:16:54;;;;;;;6.22;2.42;;;;;;;13.49;65.68;93732.34;5145649;27;20016;-75
2022/09/13 04:19:20;;;;;;;11.60;3.15;;;;;;;13.52;65.66;93726.34;5145348;27;20056;-75
2022/09/13 04:21:53;;;;;;;6.22;2.67;;;;;;;13.53;65.28;93728.66;5145363;27;20212;-75
2022/09/13 04:24:19;;;;;;;3.83;2.33;;;;;;;13.50;65.27;93720.53;5145370;27;20015;-75
2022/09/13 04:26:50;;;;;;;6.10;2.38;;;;;;;13.48;64.84;93725.44;5127166;27;20038;-75
2022/09/13 04:29:17;;;;;;;3.40;2.08;;;;;;;13.44;65.09;93728.78;5145780;27;20019;-75
2022/09/13 04:31:45;;;;;;;3.95;2.40;;;;;;;13.51;64.95;93735.47;5145278;27;20021;-75
2022/09/13 04:34:11;;;;;;;5.03;2.60;;;;;;;13.55;64.48;93737.13;5145471;27;20056;-76
2022/09/13 04:36:37;;;;;;;3.55;2.38;;;;;;;13.53;64.57;93739.38;5145664;27;20320;-76
2022/09/13 04:39:03;;;;;;;4.40;2.80;;;;;;;13.59;64.03;93742.63;5145088;27;20352;-74
2022/09/13 04:41:28;;;;;;;4.07;2.40;;;;;;;13.61;64.04;93745.75;5145020;27;20046;-74
2022/09/13 04:43:54;;;;;;;12.48;3.35;;;;;;;13.61;63.75;93743.84;5145004;27;20263;-74
2022/09/13 04:46:19;;;;;;;5.38;2.45;;;;;;;13.67;63.92;93755.13;5144878;27;20019;-74
2022/09/13 04:48:51;;;;;;;3.78;2.20;;;;;;;13.62;63.62;93758.03;5144743;27;20250;-74
2022/09/13 04:51:17;;;;;;;4.40;2.20;;;;;;;13.73;63.92;93751.09;5144969;27;20059;-74
2022/09/13 04:53:44;;;;;;;4.93;2.40;;;;;;;13.73;63.31;93753.78;5144866;27;20039;-74
2022/09/13 04:56:09;;;;;;;3.60;2.05;;;;;;;13.77;63.28;93759.25;5145151;27;20088;-74
2022/09/13 04:58:35;;;;;;;9.05;2.40;;;;;;;13.84;62.97;93760.25;5144871;27;20023;-74
2022/09/13 05:01:08;;;;;;;4.47;2.70;;;;;;;13.93;62.92;93756.69;5144925;27;20198;-74
2022/09/13 05:03:34;;;;;;;4.15;2.20;;;;;;;13.98;62.39;93757.25;5144797;27;20099;-74
2022/09/13 05:06:07;;;;;;;3.78;2.30;;;;;;;14.06;62.46;93760.91;5144795;27;20035;-74
2022/09/13 05:08:33;;;;;;;3.17;1.95;;;;;;;14.18;62.74;93760.88;5144428;27;20114;-74
2022/09/13 05:10:59;;;;;;;5.53;2.40;;;;;;;14.18;62.00;93763.56;5144478;27;20019;-74
2022/09/13 05:13:25;;;;;;;4.25;2.20;;;;;;;14.24;61.61;93756.06;5144683;27;20026;-74
2022/09/13 05:15:58;;;;;;;6.05;2.83;;;;;;;14.41;60.97;93755.81;5144459;27;20040;-75
2022/09/13 05:18:29;;;;;;;3.95;1.85;;;;;;;14.51;60.50;93765.31;5144598;27;20031;-75
2022/09/13 05:20:55;;;;;;;4.53;2.05;;;;;;;14.62;60.72;93761.03;5144493;27;20027;-74
2022/09/13 05:23:22;;;;;;;8.07;2.50;;;;;;;14.76;59.89;93765.25;5143973;27;20259;-74
2022/09/13 05:25:57;;;;;;;3.72;2.25;;;;;;;14.83;59.66;93768.13;5144223;27;20067;-74
2022/09/13 05:28:23;;;;;;;4.45;2.50;;;;;;;14.82;59.49;93758.53;5143959;27;20254;-74
2022/09/13 05:30:59;;;;;;;5.10;1.95;;;;;;;14.76;58.46;93765.25;5144217;27;20027;-75
2022/09/13 05:33:26;;;;;;;3.10;2.05;;;;;;;14.84;58.93;93756.28;5143915;27;20213;-74
2022/09/13 05:35:52;;;;;;;3.83;2.17;;;;;;;14.70;58.72;93766.63;5143255;27;20221;-74
2022/09/13 05:38:18;;;;;;;3.95;2.03;;;;;;;14.71;59.56;93768.94;5143907;27;20027;-74
2022/09/13 05:40:43;;;;;;;5.32;2.33;;;;;;;14.71;58.79;93763.56;5143811;27;20018;-76
2022/09/13 05:43:09;;;;;;;8.38;2.80;;;;;;;14.71;59.28;93754.75;5143622;27;20301;-74
2022/09/13 05:45:34;;;;;;;3.42;2.30;;;;;;;14.77;59.30;93772.16;5125872;27;20015;-74
2022/09/13 05:48:00;;;;;;;5.88;2.10;;;;;;;14.72;58.80;93770.50;5144052;27;20042;-75
2022/09/13 05:50:25;;;;;;;3.83;2.58;;;;;;;14.70;59.29;93772.75;5143979;27;20019;-75
2022/09/13 05:52:52;;;;;;;3.17;2.05;;;;;;;14.69;59.13;93770.41;5144016;27;20029;-75
2022/09/13 05:55:18;;;;;;;4.55;2.58;;;;;;;14.64;59.46;93780.25;5143795;27;20313;-74
2022/09/13 05:57:43;;;;;;;5.72;2.30;;;;;;;14.59;59.09;93780.50;5143897;27;20033;-75
2022/09/13 06:00:09;;;;;;;4.20;2.38;;;;;;;14.63;59.27;93765.28;5143962;27;20335;-74
2022/09/13 06:02:35;;;;;;;6.88;2.20;;;;;;;14.56;59.46;93762.41;5144092;27;20023;-74
2022/09/13 06:05:00;;;;;;;5.53;2.70;;;;;;;14.66;59.68;93765.75;5143678;27;20082;-74
2022/09/13 06:07:27;;;;;;;3.90;2.08;;;;;;;14.73;59.68;93772.06;5143387;28;20038;-75
2022/09/13 06:09:53;;;;;;;3.88;2.10;;;;;;;14.78;58.83;93763.00;5143732;27;20243;-74
2022/09/13 06:12:18;;;;;;;4.30;2.55;;;;;;;14.82;58.52;93767.34;5125435;28;20030;-74
2022/09/13 06:14:44;;;;;;;3.22;2.15;;;;;;;14.86;58.95;93772.81;5143579;28;20058;-74
2022/09/13 06:17:09;;;;;;;3.53;2.25;;;;;;;14.88;59.19;93773.25;5143949;28;20087;-74
2022/09/13 06:19:35;;;;;;;4.82;2.47;;;;;;;15.03;58.00;93769.81;5143536;28;20087;-75
2022/09/13 06:22:00;;;;;;;5.30;1.92;;;;;;;14.99;58.03;93781.59;5143400;28;20019;-74
2022/09/13 06:24:25;;;;;;;7.25;2.90;;;;;;;15.07;57.95;93790.63;5143470;28;20294;-75
2022/09/13 06:26:51;;;;;;;3.33;1.88;;;;;;;14.93;57.60;93791.78;5143719;28;20027;-75
2022/09/13 06:29:17;;;;;;;6.03;2.72;;;;;;;14.98;58.62;93774.63;5143425;27;20034;-75
2022/09/13 06:31:44;;;;;;;7.57;2.28;;;;;;;15.05;59.24;93783.66;5143660;28;20332;-74
2022/09/13 06:34:20;;;;;;;3.72;2.28;;;;;;;15.12;58.71;93782.31;5143606;28;20027;-75
2022/09/13 06:36:45;;;;;;;5.65;2.50;;;;;;;15.25;57.68;93798.00;5146890;27;20030;-74
2022/09/13 06:39:11;;;;;;;6.55;2.30;;;;;;;15.26;57.79;93801.47;5147738;27;20030;-74
2022/09/13 06:41:36;;;;;;;3.38;1.98;;;;;;;15.24;58.24;93790.28;5148071;27;20023;-74
2022/09/13 06:44:02;;;;;;;5.30;2.25;;;;;;;15.23;59.01;93784.16;5147535;27;20102;-74
2022/09/13 06:46:29;;;;;;;8.60;2.35;;;;;;;15.38;59.35;93797.94;5147647;27;20091;-74
2022/09/13 06:48:58;;;;;;;7.00;2.45;;;;;;;15.49;57.55;93807.06;5147312;27;20094;-75
2022/09/13 06:51:25;;;;;;;8.63;2.38;;;;;;;15.55;56.87;93816.44;5147455;27;20031;-74
2022/09/13 06:53:51;;;;;;;5.22;3.85;;;;;;;15.59;58.38;93813.81;5147380;27;20073;-74
2022/09/13 06:56:19;;;;;;;5.57;2.33;;;;;;;15.58;56.36;93813.03;5147227;27;20245;-75
2022/09/13 06:58:47;;;;;;;5.22;2.22;;;;;;;15.43;57.41;93814.59;5147281;27;20270;-74
2022/09/13 07:01:19;;;;;;;9.73;2.45;;;;;;;15.62;57.94;93815.81;5147188;27;20034;-74
2022/09/13 07:03:47;;;;;;;4.15;2.40;;;;;;;15.68;57.11;93814.44;5146891;27;20034;-74
2022/09/13 07:06:15;;;;;;;3.33;2.00;;;;;;;15.68;57.28;93800.22;5147542;27;20023;-74
2022/09/13 07:08:43;;;;;;;4.35;2.25;;;;;;;15.73;55.97;93816.13;5147325;27;20030;-74
2022/09/13 07:11:10;;;;;;;4.63;2.50;;;;;;;15.82;56.49;93814.81;5147129;27;20019;-74
2022/09/13 07:13:36;;;;;;;6.53;2.33;;;;;;;15.88;56.02;93817.25;5146999;27;20301;-75
2022/09/13 07:16:09;;;;;;;6.82;2.60;;;;;;;16.00;56.11;93812.56;5147331;27;20043;-74
2022/09/13 07:18:36;;;;;;;3.20;2.00;;;;;;;16.09;55.10;93827.75;5146905;27;20093;-74
2022/09/13 07:21:03;;;;;;;4.40;2.20;;;;;;;16.08;53.49;93816.22;5146755;27;20434;-75
2022/09/13 07:23:34;;;;;;;11.10;2.85;;;;;;;16.16;55.29;93817.94;5146572;27;20313;-74
2022/09/13 07:26:04;;;;;;;2.65;1.85;;;;;;;16.20;54.80;93816.09;5146441;27;20027;-74
2022/09/13 07:28:45;;;;;;;4.07;1.92;;;;;;;16.30;54.56;93822.06;5146826;27;20022;-74
2022/09/13 07:31:22;;;;;;;7.72;2.15;;;;;;;16.21;54.06;93820.34;5146796;27;20030;-75
2022/09/13 07:33:54;;;;;;;3.53;1.90;;;;;;;15.91;54.54;93833.44;5146739;27;20078;-74
2022/09/13 07:36:19;;;;;;;7.50;1.58;;;;;;;15.80;54.94;93822.44;5146485;27;20209;-75
2022/09/13 07:38:45;;;;;;;4.43;2.28;;;;;;;15.87;56.06;93829.13;5146482;27;20023;-75
2022/09/13 07:41:13;;;;;;;5.38;2.17;;;;;;;15.89;54.15;93821.50;5146862;27;20351;-75
2022/09/13 07:43:38;;;;;;;3.70;2.05;;;;;;;16.06;54.30;93834.59;5146626;27;20019;-75
2022/09/13 07:46:06;;;;;;;2.53;1.92;;;;;;;16.14;54.02;93817.50;5146641;27;20038;-75
2022/09/13 07:48:34;;;;;;;4.38;1.90;;;;;;;16.30;52.12;93827.44;5146003;27;20023;-75
2022/09/13 07:51:07;;;;;;;4.68;1.92;;;;;;;16.28;52.07;93833.16;5146247;27;20047;-75
2022/09/13 07:53:35;;;;;;;3.70;1.88;;;;;;;16.35;51.22;93832.56;5146233;27;20255;-74
2022/09/13 07:56:06;;;;;;;5.53;2.00;;;;;;;16.41;52.77;93837.31;5146172;27;20033;-74
2022/09/13 07:58:33;;;;;;;5.35;2.05;;;;;;;16.52;52.85;93836.78;5146507;27;20053;-75
2022/09/13 08:01:13;;;;;;;3.47;1.75;;;;;;;16.59;51.79;93828.88;5145955;27;20023;-74
2022/09/13 08:03:39;;;;;;;4.95;1.77;;;;;;;16.59;51.16;93835.03;5146249;27;20242;-74
2022/09/13 08:06:06;;;;;;;3.85;1.80;;;;;;;16.59;49.70;93839.63;5146208;27;20027;-74
2022/09/13 08:08:31;;;;;;;2.75;1.75;;;;;;;16.62;49.34;93845.06;5145838;27;20043;-75
2022/09/13 08:10:59;;;;;;;5.82;1.45;;;;;;;16.60;47.42;93828.50;5145513;27;20023;-75
2022/09/13 08:13:24;;;;;;;3.30;1.30;;;;;;;16.77;48.15;93835.41;5145961;27;20201;-74
2022/09/13 08:15:50;;;;;;;2.40;1.52;;;;;;;16.82;48.62;93831.69;5145655;27;20036;-75
2022/09/13 08:18:16;;;;;;;3.60;1.80;;;;;;;16.78;49.18;93836.19;5145642;27;20023;-74
2022/09/13 08:20:41;;;;;;;3.13;1.73;;;;;;;16.79;50.46;93827.78;5145642;27;20110;-74
2022/09/13 08:23:09;;;;;;;3.65;1.70;;;;;;;16.85;49.13;93844.44;5145919;27;20098;-75
2022/09/13 08:25:35;;;;;;;2.67;1.63;;;;;;;16.83;49.26;93841.31;5145753;27;20378;-75
2022/09/13 08:28:08;;;;;;;5.57;1.83;;;;;;;16.63;48.95;93830.50;5145719;27;20330;-74
2022/09/13 08:30:49;;;;;;;;;;;;;;;;;;;;;
2022/09/13 08:37:03;;;;;;;2.15;1.50;;;;;;;17.05;47.75;93826.38;5133972;27;20035;-75
2022/09/13 08:40:07;;;;;;;2.47;1.77;;;;;;;17.06;46.02;93811.78;5144486;27;20103;-75
2022/09/13 08:43:34;;;;;;;2.67;1.35;;;;;;;17.27;46.05;93808.72;5143990;27;20027;-75
2022/09/13 08:46:24;;;;;;;5.50;1.70;;;;;;;17.27;47.04;93821.41;5144797;27;20048;-75
2022/09/13 08:48:53;;;;;;;8.20;1.40;;;;;;;17.33;44.34;93815.38;5145123;27;20023;-75
2022/09/13 08:51:43;;;;;;;2.55;1.35;;;;;;;17.40;43.73;93818.22;5126877;27;20247;-75
2022/09/13 08:58:09;;;;;;;8.52;1.70;;;;;;;17.48;44.33;93812.94;5144717;27;20344;-75
2022/09/13 09:01:03;;;;;;;;;;;;;;;;;;;;;
2022/09/13 09:07:50;;;;;;;2.63;1.45;;;;;;;17.70;43.68;93814.88;5119690;27;20072;-75
2022/09/13 09:14:27;;;;;;;3.03;1.67;;;;;;;18.07;42.32;93817.06;5080394;28;20107;-75
2022/09/13 09:17:01;;;;;;;2.63;1.35;;;;;;;18.00;40.43;93822.34;5103229;28;20032;-75
2022/09/13 09:19:34;;;;;;;3.83;1.08;;;;;;;17.90;40.11;93823.72;5103595;28;20016;-75
2022/09/13 09:22:04;;;;;;;2.17;1.38;;;;;;;18.02;40.78;93815.44;5103531;28;20081;-75
2022/09/13 09:24:35;;;;;;;4.35;1.45;;;;;;;18.04;40.81;93828.56;5103436;28;20252;-75
2022/09/13 09:27:07;;;;;;;5.47;1.45;;;;;;;18.14;39.65;93811.00;5103680;28;20028;-75
2022/09/13 09:29:37;;;;;;;4.25;1.35;;;;;;;18.34;38.90;93817.06;5103584;28;20028;-75
2022/09/13 09:32:11;;;;;;;2.55;1.15;;;;;;;18.29;39.21;93804.69;5103558;28;20308;-74
2022/09/13 09:35:15;;;;;;;9.45;1.85;;;;;;;18.25;41.18;93799.22;5103420;28;20024;-77
2022/09/13 09:37:44;;;;;;;2.80;1.40;;;;;;;18.21;39.91;93797.63;5101320;28;20028;-75
2022/09/13 09:40:13;;;;;;;2.55;1.20;;;;;;;18.22;41.09;93801.88;5101457;28;20028;-75
2022/09/13 09:42:44;;;;;;;2.60;1.00;;;;;;;18.25;41.02;93801.91;5102537;28;20032;-75
2022/09/13 09:45:29;;;;;;;2.83;1.47;;;;;;;18.21;39.87;93795.69;5103263;28;20020;-75
2022/09/13 09:47:58;;;;;;;2.65;1.38;;;;;;;18.34;40.29;93785.50;5103199;28;20020;-75
2022/09/13 09:50:28;;;;;;;2.30;1.35;;;;;;;18.48;39.85;93781.44;5102978;28;20047;-75
2022/09/13 09:53:08;;;;;;;3.22;1.42;;;;;;;18.72;39.38;93780.97;5102988;28;20027;-75
2022/09/13 09:55:45;;;;;;;2.33;1.30;;;;;;;18.92;40.17;93786.28;5102954;28;20024;-75
2022/09/13 09:58:15;;;;;;;3.15;1.33;;;;;;;18.93;38.55;93791.31;5103251;28;20210;-75
2022/09/13 10:01:15;;;;;;;6.65;1.60;;;;;;;18.80;39.22;93784.59;5102997;28;20368;-75
2022/09/13 10:03:41;;;;;;;3.38;1.40;;;;;;;18.84;38.35;93788.09;5102461;28;20032;-75
2022/09/13 10:06:22;;;;;;;2.90;1.67;;;;;;;18.83;39.05;93781.16;5103000;28;20374;-75
2022/09/13 10:09:01;;;;;;;5.03;1.75;;;;;;;18.80;40.24;93776.47;5128746;28;20027;-75
2022/09/13 10:11:44;;;;;;;5.82;1.40;;;;;;;18.72;39.70;93767.47;5143560;27;20086;-75
2022/09/13 10:14:36;;;;;;;4.40;1.33;;;;;;;18.62;39.22;93770.81;5143861;27;20027;-75
2022/09/13 10:17:22;;;;;;;1.92;1.20;;;;;;;18.61;38.96;93769.28;5144104;27;20224;-75
2022/09/13 10:20:18;;;;;;;2.35;1.40;;;;;;;18.62;39.26;93762.72;5143759;28;20022;-75
2022/09/13 10:23:04;;;;;;;3.28;1.25;;;;;;;18.69;40.16;93764.75;5143866;27;20019;-75
2022/09/13 10:25:30;;;;;;;1.98;1.25;;;;;;;18.70;40.46;93767.06;5143644;28;20054;-75
2022/09/13 10:27:59;;;;;;;2.05;1.30;;;;;;;18.72;39.23;93762.09;5143642;27;20055;-75
2022/09/13 10:30:39;;;;;;;1.63;1.08;;;;;;;18.69;37.59;93759.34;5143531;28;20023;-75
2022/09/13 10:33:20;;;;;;;2.13;1.10;;;;;;;18.77;37.20;93766.41;5143683;27;20082;-75
2022/09/13 10:35:48;;;;;;;5.38;1.58;;;;;;;18.90;36.54;93770.44;5143478;28;20031;-75
2022/09/13 10:38:26;;;;;;;2.17;1.13;;;;;;;18.88;36.29;93756.53;5143872;28;20023;-75
2022/09/13 10:40:52;;;;;;;2.85;1.52;;;;;;;19.01;38.71;93749.75;5143604;28;20023;-75
2022/09/13 10:43:18;;;;;;;2.30;1.30;;;;;;;19.02;37.64;93756.69;5143460;27;20027;-74
2022/09/13 10:45:48;;;;;;;1.60;1.20;;;;;;;19.06;37.46;93739.75;5143774;27;20027;-75
2022/09/13 10:48:16;;;;;;;5.35;1.35;;;;;;;19.12;37.95;93739.03;5143056;28;20038;-75
2022/09/13 10:50:59;;;;;;;4.78;1.60;;;;;;;19.25;37.51;93744.97;5143683;28;20023;-75
2022/09/13 10:53:35;;;;;;;2.45;1.55;;;;;;;19.33;37.03;93737.72;5143575;27;20079;-75
2022/09/13 10:56:02;;;;;;;3.92;1.85;;;;;;;19.37;37.57;93749.31;5143517;28;20309;-75
2022/09/13 10:58:27;;;;;;;2.58;1.52;;;;;;;19.32;36.53;93753.16;5143535;28;20015;-75
2022/09/13 11:01:11;;;;;;;2.75;1.33;;;;;;;19.28;36.72;93746.94;5143300;28;20354;-76
2022/09/13 11:04:15;;;;;;;8.70;1.30;;;;;;;19.41;37.02;93744.72;5143743;27;20029;-75
2022/09/13 11:07:26;;;;;;;2.38;1.42;;;;;;;19.46;36.14;93739.00;5140958;27;20031;-75
2022/09/13 11:10:00;;;;;;;12.25;1.75;;;;;;;19.58;37.44;93737.94;5079268;28;20031;-76
2022/09/13 11:12:47;;;;;;;2.30;1.40;;;;;;;19.54;37.08;93737.13;5143424;27;20027;-76
2022/09/13 11:15:25;;;;;;;5.68;1.40;;;;;;;19.48;36.16;93739.41;5143503;28;20027;-75
2022/09/13 11:18:16;;;;;;;6.07;1.65;;;;;;;19.41;38.03;93745.50;5143297;27;20022;-75
2022/09/13 11:20:41;;;;;;;4.90;1.75;;;;;;;19.35;36.53;93741.59;5143385;27;20037;-76
2022/09/13 11:23:25;;;;;;;3.97;1.33;;;;;;;19.38;37.05;93740.84;5145512;27;20042;-75
2022/09/13 11:26:11;;;;;;;2.80;1.38;;;;;;;19.52;39.03;93728.59;5146852;27;20023;-75
2022/09/13 11:29:05;;;;;;;2.53;1.42;;;;;;;19.66;36.55;93717.91;5128745;27;20080;-76
2022/09/13 11:32:03;;;;;;;2.80;1.42;;;;;;;19.77;35.39;93708.00;5114746;27;20076;-76
2022/09/13 11:34:38;;;;;;;2.10;1.15;;;;;;;19.98;35.92;93712.00;5146973;27;20023;-75
2022/09/13 11:37:14;;;;;;;1.73;1.08;;;;;;;20.06;34.76;93719.03;5146740;27;20088;-75
2022/09/13 11:39:58;;;;;;;5.32;1.60;;;;;;;20.22;35.83;93705.97;5146670;27;20019;-75
2022/09/13 11:42:38;;;;;;;6.32;1.30;;;;;;;20.26;33.68;93699.84;5128360;27;20228;-76
2022/09/13 11:45:26;;;;;;;3.35;1.30;;;;;;;20.41;35.22;93715.78;5146566;27;20027;-75
2022/09/13 11:47:57;;;;;;;3.75;1.23;;;;;;;20.50;34.45;93703.81;5146154;27;20049;-76
2022/09/13 11:50:51;;;;;;;1.92;1.13;;;;;;;20.51;34.60;93705.38;5146730;27;20035;-75
2022/09/13 11:53:54;;;;;;;6.90;1.70;;;;;;;20.58;33.39;93711.63;5146340;27;20166;-75
2022/09/13 11:56:26;;;;;;;4.45;1.60;;;;;;;20.58;33.54;93717.03;5146275;27;20075;-75
2022/09/13 11:59:09;;;;;;;2.50;1.23;;;;;;;20.45;34.28;93704.94;5146422;27;20016;-76
2022/09/13 12:01:44;;;;;;;2.85;1.42;;;;;;;20.57;34.81;93711.97;5145951;27;20079;-75
2022/09/13 12:04:29;;;;;;;4.60;1.13;;;;;;;20.55;34.71;93711.56;5146218;27;20090;-76
2022/09/13 12:06:59;;;;;;;3.00;1.00;;;;;;;20.48;32.87;93706.13;5146084;27;20047;-75
2022/09/13 12:09:31;;;;;;;2.35;1.23;;;;;;;20.47;32.75;93702.63;5145777;27;20057;-76
2022/09/13 12:12:25;;;;;;;2.00;1.10;;;;;;;20.68;32.79;93709.31;5145996;27;20026;-76
2022/09/13 12:14:58;;;;;;;3.20;1.90;;;;;;;20.79;32.61;93710.16;5141826;27;20080;-76
2022/09/13 12:17:30;;;;;;;2.05;1.35;;;;;;;20.93;34.06;93712.16;5145997;27;20019;-76
2022/09/13 12:19:59;;;;;;;2.53;1.80;;;;;;;20.98;34.22;93688.16;5145876;27;20082;-75
2022/09/13 12:22:29;;;;;;;3.85;1.65;;;;;;;21.19;33.19;93694.81;5145584;27;20023;-75